sensor_id;sensor_type;location;lat;lon;timestamp;pressure;altitude;pressure_sealevel;temperature;humidity
35519;BME280;21627;48.216;16.482;2023-04-01T00:01:06;98371.22;;;10.93;73.18
35519;BME280;21627;48.216;16.482;2023-04-01T00:03:34;98375.38;;;11.00;73.40
35519;BME280;21627;48.216;16.482;2023-04-01T00:06:02;98381.28;;;11.05;73.36
35519;BME280;21627;48.216;16.482;2023-04-01T00:08:29;98385.88;;;10.94;73.55
35519;BME280;21627;48.216;16.482;2023-04-01T00:10:57;98385.09;;;10.90;74.39
35519;BME280;21627;48.216;16.482;2023-04-01T00:13:26;98389.22;;;10.97;74.12
35519;BME280;21627;48.216;16.482;2023-04-01T00:15:55;98378.81;;;11.00;73.69
35519;BME280;21627;48.216;16.482;2023-04-01T00:18:26;98378.31;;;10.86;74.56
35519;BME280;21627;48.216;16.482;2023-04-01T00:20:53;98370.75;;;10.77;74.79
35519;BME280;21627;48.216;16.482;2023-04-01T00:23:20;98391.22;;;10.86;74.68
35519;BME280;21627;48.216;16.482;2023-04-01T00:25:48;98388.75;;;10.80;75.09
35519;BME280;21627;48.216;16.482;2023-04-01T00:28:18;98393.03;;;10.82;74.92
35519;BME280;21627;48.216;16.482;2023-04-01T00:30:46;98401.66;;;10.81;75.09
35519;BME280;21627;48.216;16.482;2023-04-01T00:33:14;98406.09;;;10.76;75.59
35519;BME280;21627;48.216;16.482;2023-04-01T00:35:41;98395.81;;;10.73;75.08
35519;BME280;21627;48.216;16.482;2023-04-01T00:38:09;98409.19;;;10.91;74.78
35519;BME280;21627;48.216;16.482;2023-04-01T00:40:45;98407.69;;;10.82;75.38
35519;BME280;21627;48.216;16.482;2023-04-01T00:43:19;98396.72;;;10.71;75.25
35519;BME280;21627;48.216;16.482;2023-04-01T00:45:49;98407.84;;;10.74;75.61
35519;BME280;21627;48.216;16.482;2023-04-01T00:48:23;98402.03;;;10.66;75.99
35519;BME280;21627;48.216;16.482;2023-04-01T00:53:36;98408.28;;;10.54;76.23
35519;BME280;21627;48.216;16.482;2023-04-01T00:56:11;98405.78;;;10.51;77.14
35519;BME280;21627;48.216;16.482;2023-04-01T00:58:51;98405.91;;;10.45;77.18
35519;BME280;21627;48.216;16.482;2023-04-01T01:01:23;98387.28;;;10.31;77.49
35519;BME280;21627;48.216;16.482;2023-04-01T01:03:51;98402.53;;;10.42;77.65
35519;BME280;21627;48.216;16.482;2023-04-01T01:15:30;98398.88;;;10.52;76.94
35519;BME280;21627;48.216;16.482;2023-04-01T01:18:19;98403.06;;;10.57;76.68
35519;BME280;21627;48.216;16.482;2023-04-01T01:29:40;98402.22;;;10.55;75.71
35519;BME280;21627;48.216;16.482;2023-04-01T01:35:43;98403.13;;;10.54;75.98
35519;BME280;21627;48.216;16.482;2023-04-01T01:38:20;98404.06;;;10.50;76.07
35519;BME280;21627;48.216;16.482;2023-04-01T01:40:49;98394.75;;;10.43;76.42
35519;BME280;21627;48.216;16.482;2023-04-01T01:43:29;98394.03;;;10.36;76.70
35519;BME280;21627;48.216;16.482;2023-04-01T01:46:06;98378.63;;;10.32;77.29
35519;BME280;21627;48.216;16.482;2023-04-01T01:48:36;98386.44;;;10.27;77.77
35519;BME280;21627;48.216;16.482;2023-04-01T01:51:06;98393.41;;;10.24;77.79
35519;BME280;21627;48.216;16.482;2023-04-01T01:53:34;98395.19;;;10.20;77.76
35519;BME280;21627;48.216;16.482;2023-04-01T01:56:01;98393.44;;;10.22;77.79
35519;BME280;21627;48.216;16.482;2023-04-01T01:58:54;98394.44;;;10.15;78.23
35519;BME280;21627;48.216;16.482;2023-04-01T02:01:35;98391.03;;;10.13;78.34
35519;BME280;21627;48.216;16.482;2023-04-01T02:04:04;98375.84;;;9.97;79.20
35519;BME280;21627;48.216;16.482;2023-04-01T02:06:37;98380.91;;;10.02;79.33
35519;BME280;21627;48.216;16.482;2023-04-01T02:09:09;98384.41;;;10.01;79.32
35519;BME280;21627;48.216;16.482;2023-04-01T02:11:52;98381.00;;;9.97;80.19
35519;BME280;21627;48.216;16.482;2023-04-01T02:17:15;98390.63;;;9.91;80.43
35519;BME280;21627;48.216;16.482;2023-04-01T02:20:09;98387.22;;;9.89;80.94
35519;BME280;21627;48.216;16.482;2023-04-01T02:22:43;98387.13;;;9.93;80.42
35519;BME280;21627;48.216;16.482;2023-04-01T02:25:16;98385.31;;;9.97;80.26
35519;BME280;21627;48.216;16.482;2023-04-01T02:27:46;98388.72;;;10.01;80.87
35519;BME280;21627;48.216;16.482;2023-04-01T02:30:16;98393.00;;;10.00;81.10
35519;BME280;21627;48.216;16.482;2023-04-01T02:32:45;98385.22;;;10.02;81.34
35519;BME280;21627;48.216;16.482;2023-04-01T02:35:15;98395.78;;;9.91;82.21
35519;BME280;21627;48.216;16.482;2023-04-01T02:37:44;98379.69;;;9.77;82.89
35519;BME280;21627;48.216;16.482;2023-04-01T02:40:14;98392.16;;;10.00;81.97
35519;BME280;21627;48.216;16.482;2023-04-01T02:42:41;98394.88;;;9.93;82.99
35519;BME280;21627;48.216;16.482;2023-04-01T02:45:10;98389.78;;;9.90;82.95
35519;BME280;21627;48.216;16.482;2023-04-01T02:47:37;98389.63;;;9.96;82.32
35519;BME280;21627;48.216;16.482;2023-04-01T02:50:06;98383.59;;;9.97;82.48
35519;BME280;21627;48.216;16.482;2023-04-01T02:52:33;98395.56;;;10.02;82.25
35519;BME280;21627;48.216;16.482;2023-04-01T02:55:01;98386.22;;;9.94;82.26
35519;BME280;21627;48.216;16.482;2023-04-01T02:57:28;98394.03;;;9.93;82.96
35519;BME280;21627;48.216;16.482;2023-04-01T02:59:56;98386.16;;;9.97;81.46
35519;BME280;21627;48.216;16.482;2023-04-01T03:02:23;98386.06;;;10.04;81.08
35519;BME280;21627;48.216;16.482;2023-04-01T03:04:50;98381.97;;;9.92;82.01
35519;BME280;21627;48.216;16.482;2023-04-01T03:07:18;98389.72;;;9.92;82.09
35519;BME280;21627;48.216;16.482;2023-04-01T03:09:45;98399.03;;;10.01;82.21
35519;BME280;21627;48.216;16.482;2023-04-01T03:12:12;98403.09;;;10.12;80.70
35519;BME280;21627;48.216;16.482;2023-04-01T03:14:39;98402.31;;;10.09;81.96
35519;BME280;21627;48.216;16.482;2023-04-01T03:17:06;98404.22;;;10.01;84.01
35519;BME280;21627;48.216;16.482;2023-04-01T03:19:33;98399.13;;;9.96;85.15
35519;BME280;21627;48.216;16.482;2023-04-01T03:22:01;98400.91;;;9.92;86.81
35519;BME280;21627;48.216;16.482;2023-04-01T03:24:28;98397.56;;;9.87;88.57
35519;BME280;21627;48.216;16.482;2023-04-01T03:26:55;98391.69;;;9.81;86.93
35519;BME280;21627;48.216;16.482;2023-04-01T03:29:22;98400.19;;;9.84;86.05
35519;BME280;21627;48.216;16.482;2023-04-01T03:31:50;98382.41;;;9.69;86.38
35519;BME280;21627;48.216;16.482;2023-04-01T03:34:17;98385.75;;;9.75;84.75
35519;BME280;21627;48.216;16.482;2023-04-01T03:36:44;98389.84;;;9.86;84.28
35519;BME280;21627;48.216;16.482;2023-04-01T03:39:11;98386.28;;;9.93;83.88
35519;BME280;21627;48.216;16.482;2023-04-01T03:41:39;98372.78;;;9.79;84.48
35519;BME280;21627;48.216;16.482;2023-04-01T03:44:06;98395.03;;;9.86;83.81
35519;BME280;21627;48.216;16.482;2023-04-01T03:46:33;98400.25;;;9.83;84.39
35519;BME280;21627;48.216;16.482;2023-04-01T03:49:00;98393.19;;;9.91;83.59
35519;BME280;21627;48.216;16.482;2023-04-01T03:51:28;98401.94;;;9.82;83.78
35519;BME280;21627;48.216;16.482;2023-04-01T03:53:55;98390.81;;;9.80;83.46
35519;BME280;21627;48.216;16.482;2023-04-01T03:56:22;98388.47;;;9.68;83.71
35519;BME280;21627;48.216;16.482;2023-04-01T03:58:49;98396.97;;;9.73;83.71
35519;BME280;21627;48.216;16.482;2023-04-01T04:01:21;98401.25;;;9.75;84.25
35519;BME280;21627;48.216;16.482;2023-04-01T04:03:49;98404.75;;;9.70;85.16
35519;BME280;21627;48.216;16.482;2023-04-01T04:06:18;98402.22;;;9.68;84.88
35519;BME280;21627;48.216;16.482;2023-04-01T04:08:46;98402.00;;;9.79;84.66
35519;BME280;21627;48.216;16.482;2023-04-01T04:11:18;98405.44;;;9.80;83.93
35519;BME280;21627;48.216;16.482;2023-04-01T04:13:46;98395.19;;;9.75;83.62
35519;BME280;21627;48.216;16.482;2023-04-01T04:16:16;98401.38;;;9.68;84.43
35519;BME280;21627;48.216;16.482;2023-04-01T04:18:43;98385.06;;;9.64;84.37
35519;BME280;21627;48.216;16.482;2023-04-01T04:21:15;98395.44;;;9.63;85.41
35519;BME280;21627;48.216;16.482;2023-04-01T04:23:43;98388.50;;;9.66;85.03
35519;BME280;21627;48.216;16.482;2023-04-01T04:26:13;98389.69;;;9.48;85.86
35519;BME280;21627;48.216;16.482;2023-04-01T04:28:41;98403.41;;;9.50;85.28
35519;BME280;21627;48.216;16.482;2023-04-01T04:31:08;98393.16;;;9.44;85.80
35519;BME280;21627;48.216;16.482;2023-04-01T04:33:36;98386.34;;;9.42;86.01
35519;BME280;21627;48.216;16.482;2023-04-01T04:36:04;98404.34;;;9.45;86.10
35519;BME280;21627;48.216;16.482;2023-04-01T04:38:32;98388.00;;;9.46;85.07
35519;BME280;21627;48.216;16.482;2023-04-01T04:40:59;98385.56;;;9.37;85.59
35519;BME280;21627;48.216;16.482;2023-04-01T04:43:26;98393.28;;;9.38;85.66
35519;BME280;21627;48.216;16.482;2023-04-01T04:45:53;98387.09;;;9.48;85.02
35519;BME280;21627;48.216;16.482;2023-04-01T04:48:20;98387.25;;;9.39;85.58
35519;BME280;21627;48.216;16.482;2023-04-01T04:50:49;98403.44;;;9.47;84.82
35519;BME280;21627;48.216;16.482;2023-04-01T04:53:18;98398.34;;;9.44;84.49
35519;BME280;21627;48.216;16.482;2023-04-01T04:55:48;98394.97;;;9.41;85.06
35519;BME280;21627;48.216;16.482;2023-04-01T04:58:16;98394.25;;;9.32;85.36
35519;BME280;21627;48.216;16.482;2023-04-01T05:00:44;98398.50;;;9.35;85.75
35519;BME280;21627;48.216;16.482;2023-04-01T05:03:12;98387.16;;;9.44;84.81
35519;BME280;21627;48.216;16.482;2023-04-01T05:05:48;98391.47;;;9.43;84.68
35519;BME280;21627;48.216;16.482;2023-04-01T05:08:16;98385.47;;;9.43;84.59
35519;BME280;21627;48.216;16.482;2023-04-01T05:10:44;98390.78;;;9.35;85.51
35519;BME280;21627;48.216;16.482;2023-04-01T05:13:11;98394.91;;;9.42;85.10
35519;BME280;21627;48.216;16.482;2023-04-01T05:15:39;98388.22;;;9.32;85.71
35519;BME280;21627;48.216;16.482;2023-04-01T05:18:06;98395.03;;;9.36;85.73
35519;BME280;21627;48.216;16.482;2023-04-01T05:20:33;98376.97;;;9.38;84.73
35519;BME280;21627;48.216;16.482;2023-04-01T05:23:01;98388.13;;;9.38;85.42
35519;BME280;21627;48.216;16.482;2023-04-01T05:25:28;98388.09;;;9.40;85.92
35519;BME280;21627;48.216;16.482;2023-04-01T05:27:55;98388.00;;;9.46;85.19
35519;BME280;21627;48.216;16.482;2023-04-01T05:30:22;98389.41;;;9.64;83.58
35519;BME280;21627;48.216;16.482;2023-04-01T05:32:49;98385.25;;;9.55;84.40
35519;BME280;21627;48.216;16.482;2023-04-01T05:35:17;98398.97;;;9.57;84.62
35519;BME280;21627;48.216;16.482;2023-04-01T05:37:44;98404.81;;;9.67;84.20
35519;BME280;21627;48.216;16.482;2023-04-01T05:40:11;98410.88;;;9.66;83.94
35519;BME280;21627;48.216;16.482;2023-04-01T05:42:38;98405.53;;;9.75;83.34
35519;BME280;21627;48.216;16.482;2023-04-01T05:45:06;98416.66;;;9.79;83.13
35519;BME280;21627;48.216;16.482;2023-04-01T05:47:34;98425.94;;;9.87;83.09
35519;BME280;21627;48.216;16.482;2023-04-01T05:50:01;98435.47;;;9.85;83.54
35519;BME280;21627;48.216;16.482;2023-04-01T05:52:28;98440.50;;;9.93;83.17
35519;BME280;21627;48.216;16.482;2023-04-01T05:54:55;98435.94;;;10.06;82.55
35519;BME280;21627;48.216;16.482;2023-04-01T05:57:22;98436.88;;;10.02;83.18
35519;BME280;21627;48.216;16.482;2023-04-01T05:59:50;98446.00;;;10.21;82.23
35519;BME280;21627;48.216;16.482;2023-04-01T06:02:17;98432.31;;;10.16;81.82
35519;BME280;21627;48.216;16.482;2023-04-01T06:04:45;98445.22;;;10.16;81.97
35519;BME280;21627;48.216;16.482;2023-04-01T06:07:18;98451.31;;;10.12;82.83
35519;BME280;21627;48.216;16.482;2023-04-01T06:09:45;98455.50;;;10.17;82.24
35519;BME280;21627;48.216;16.482;2023-04-01T06:25:43;98437.97;;;10.77;79.33
35519;BME280;21627;48.216;16.482;2023-04-01T06:54:16;98457.19;;;11.76;74.24
35519;BME280;21627;48.216;16.482;2023-04-01T06:56:49;98460.50;;;11.81;72.26
35519;BME280;21627;48.216;16.482;2023-04-01T06:59:25;98457.19;;;11.76;74.21
35519;BME280;21627;48.216;16.482;2023-04-01T07:04:53;98456.31;;;12.09;71.72
35519;BME280;21627;48.216;16.482;2023-04-01T07:07:43;98458.78;;;12.14;71.80
35519;BME280;21627;48.216;16.482;2023-04-01T07:10:25;98471.00;;;12.09;71.25
35519;BME280;21627;48.216;16.482;2023-04-01T07:12:57;98470.97;;;12.12;70.73
35519;BME280;21627;48.216;16.482;2023-04-01T07:15:39;98471.84;;;12.09;71.00
35519;BME280;21627;48.216;16.482;2023-04-01T07:18:52;98479.59;;;12.11;70.69
35519;BME280;21627;48.216;16.482;2023-04-01T07:21:49;98477.69;;;12.18;69.73
35519;BME280;21627;48.216;16.482;2023-04-01T07:24:37;98482.50;;;12.31;69.56
35519;BME280;21627;48.216;16.482;2023-04-01T07:27:11;98475.16;;;12.47;68.70
35519;BME280;21627;48.216;16.482;2023-04-01T07:29:39;98485.31;;;12.55;67.58
35519;BME280;21627;48.216;16.482;2023-04-01T07:38:17;98474.53;;;12.98;65.88
35519;BME280;21627;48.216;16.482;2023-04-01T07:41:21;98471.94;;;12.98;64.92
35519;BME280;21627;48.216;16.482;2023-04-01T07:44:14;98467.31;;;13.08;65.08
35519;BME280;21627;48.216;16.482;2023-04-01T08:05:19;98479.50;;;14.13;59.95
35519;BME280;21627;48.216;16.482;2023-04-01T08:09:14;98479.44;;;14.14;59.73
35519;BME280;21627;48.216;16.482;2023-04-01T08:15:02;98481.09;;;14.65;57.76
35519;BME280;21627;48.216;16.482;2023-04-01T08:18:20;98482.75;;;14.68;57.94
35519;BME280;21627;48.216;16.482;2023-04-01T08:20:48;98485.50;;;14.87;56.50
35519;BME280;21627;48.216;16.482;2023-04-01T08:23:36;98496.22;;;14.79;56.20
35519;BME280;21627;48.216;16.482;2023-04-01T08:26:23;98496.09;;;14.82;56.47
35519;BME280;21627;48.216;16.482;2023-04-01T08:29:14;98496.00;;;14.62;55.75
35519;BME280;21627;48.216;16.482;2023-04-01T08:35:03;98483.31;;;14.51;56.15
35519;BME280;21627;48.216;16.482;2023-04-01T08:37:38;98488.91;;;14.40;55.17
35519;BME280;21627;48.216;16.482;2023-04-01T08:52:20;98496.81;;;14.14;58.11
35519;BME280;21627;48.216;16.482;2023-04-01T09:01:14;98482.88;;;14.40;56.82
35519;BME280;21627;48.216;16.482;2023-04-01T09:06:32;98498.63;;;14.60;57.25
35519;BME280;21627;48.216;16.482;2023-04-01T09:15:34;98508.63;;;14.22;57.06
35519;BME280;21627;48.216;16.482;2023-04-01T09:21:37;98518.31;;;14.17;57.21
35519;BME280;21627;48.216;16.482;2023-04-01T09:27:04;98527.38;;;14.05;58.25
35519;BME280;21627;48.216;16.482;2023-04-01T09:35:47;98514.63;;;13.73;59.24
35519;BME280;21627;48.216;16.482;2023-04-01T09:38:44;98505.63;;;13.83;59.13
35519;BME280;21627;48.216;16.482;2023-04-01T09:44:20;98507.53;;;13.78;59.40
35519;BME280;21627;48.216;16.482;2023-04-01T09:52:09;98517.28;;;13.71;58.63
35519;BME280;21627;48.216;16.482;2023-04-01T10:27:33;98508.31;;;14.80;55.62
35519;BME280;21627;48.216;16.482;2023-04-01T10:52:00;98505.41;;;14.88;51.54
35519;BME280;21627;48.216;16.482;2023-04-01T10:54:46;98518.00;;;14.77;52.74
35519;BME280;21627;48.216;16.482;2023-04-01T11:06:44;98524.69;;;14.59;53.86
35519;BME280;21627;48.216;16.482;2023-04-01T11:28:27;98501.78;;;15.38;54.47
35519;BME280;21627;48.216;16.482;2023-04-01T11:46:12;98496.41;;;14.49;52.60
35519;BME280;21627;48.216;16.482;2023-04-01T12:01:28;98495.31;;;14.57;53.00
35519;BME280;21627;48.216;16.482;2023-04-01T12:07:36;98508.19;;;14.83;51.77
35519;BME280;21627;48.216;16.482;2023-04-01T12:10:27;98499.91;;;14.96;50.29
35519;BME280;21627;48.216;16.482;2023-04-01T12:18:24;98517.03;;;15.25;50.82
35519;BME280;21627;48.216;16.482;2023-04-01T12:41:36;98482.00;;;18.38;41.68
35519;BME280;21627;48.216;16.482;2023-04-01T12:50:35;98499.97;;;17.40;43.45
35519;BME280;21627;48.216;16.482;2023-04-01T12:56:03;98497.13;;;16.89;44.18
35519;BME280;21627;48.216;16.482;2023-04-01T13:01:30;98499.94;;;16.25;45.49
35519;BME280;21627;48.216;16.482;2023-04-01T13:13:34;98495.75;;;16.00;49.87
35519;BME280;21627;48.216;16.482;2023-04-01T13:16:21;98496.78;;;16.76;47.74
35519;BME280;21627;48.216;16.482;2023-04-01T13:19:21;98490.13;;;17.81;45.38
35519;BME280;21627;48.216;16.482;2023-04-01T13:28:40;98479.66;;;18.49;42.00
35519;BME280;21627;48.216;16.482;2023-04-01T13:43:42;98483.56;;;19.39;41.42
35519;BME280;21627;48.216;16.482;2023-04-01T13:46:33;98477.59;;;18.72;38.27
35519;BME280;21627;48.216;16.482;2023-04-01T13:55:34;98478.53;;;18.71;37.73
35519;BME280;21627;48.216;16.482;2023-04-01T13:58:51;98474.41;;;19.30;36.92
35519;BME280;21627;48.216;16.482;2023-04-01T14:02:02;98462.66;;;20.14;35.61
35519;BME280;21627;48.216;16.482;2023-04-01T14:16:10;98468.94;;;20.83;33.74
35519;BME280;21627;48.216;16.482;2023-04-01T14:19:11;98460.28;;;21.09;32.43
35519;BME280;21627;48.216;16.482;2023-04-01T14:27:59;98451.22;;;20.43;33.28
35519;BME280;21627;48.216;16.482;2023-04-01T14:30:40;98463.31;;;20.46;33.89
35519;BME280;21627;48.216;16.482;2023-04-01T14:48:14;98454.47;;;21.04;31.94
35519;BME280;21627;48.216;16.482;2023-04-01T14:50:48;98450.22;;;20.74;31.89
35519;BME280;21627;48.216;16.482;2023-04-01T14:55:54;98455.94;;;20.67;31.85
35519;BME280;21627;48.216;16.482;2023-04-01T14:58:25;98450.00;;;20.35;32.09
35519;BME280;21627;48.216;16.482;2023-04-01T15:09:41;98450.78;;;19.16;35.25
35519;BME280;21627;48.216;16.482;2023-04-01T15:24:20;98452.47;;;18.19;37.37
35519;BME280;21627;48.216;16.482;2023-04-01T15:27:23;98444.34;;;18.07;37.54
35519;BME280;21627;48.216;16.482;2023-04-01T15:30:21;98446.59;;;17.98;38.29
35519;BME280;21627;48.216;16.482;2023-04-01T15:36:49;98450.63;;;17.68;39.36
35519;BME280;21627;48.216;16.482;2023-04-01T15:39:50;98454.41;;;17.63;39.68
35519;BME280;21627;48.216;16.482;2023-04-01T15:43:00;98458.09;;;17.59;40.22
35519;BME280;21627;48.216;16.482;2023-04-01T15:45:49;98459.47;;;17.66;39.58
35519;BME280;21627;48.216;16.482;2023-04-01T15:51:28;98461.56;;;17.59;37.78
35519;BME280;21627;48.216;16.482;2023-04-01T16:01:07;98477.13;;;17.07;41.49
35519;BME280;21627;48.216;16.482;2023-04-01T16:21:35;98481.78;;;16.23;45.74
35519;BME280;21627;48.216;16.482;2023-04-01T16:27:12;98508.09;;;16.17;45.78
35519;BME280;21627;48.216;16.482;2023-04-01T16:29:47;98506.56;;;16.13;46.28
35519;BME280;21627;48.216;16.482;2023-04-01T16:32:23;98507.72;;;16.06;46.49
35519;BME280;21627;48.216;16.482;2023-04-01T16:38:11;98515.09;;;15.74;47.45
35519;BME280;21627;48.216;16.482;2023-04-01T16:44:06;98526.72;;;15.43;48.83
35519;BME280;21627;48.216;16.482;2023-04-01T16:46:41;98534.47;;;15.23;49.58
35519;BME280;21627;48.216;16.482;2023-04-01T16:49:45;98524.75;;;15.04;49.89
35519;BME280;21627;48.216;16.482;2023-04-01T16:52:29;98538.72;;;15.02;50.49
35519;BME280;21627;48.216;16.482;2023-04-01T16:55:35;98542.25;;;14.77;51.15
35519;BME280;21627;48.216;16.482;2023-04-01T16:58:18;98539.50;;;14.82;51.87
35519;BME280;21627;48.216;16.482;2023-04-01T17:01:28;98558.31;;;14.65;52.45
35519;BME280;21627;48.216;16.482;2023-04-01T17:03:53;98559.13;;;14.40;53.74
35519;BME280;21627;48.216;16.482;2023-04-01T17:06:47;98566.13;;;14.38;55.23
35519;BME280;21627;48.216;16.482;2023-04-01T17:12:48;98591.66;;;14.00;57.16
35519;BME280;21627;48.216;16.482;2023-04-01T17:18:57;98577.75;;;13.75;57.31
35519;BME280;21627;48.216;16.482;2023-04-01T17:29:31;98601.66;;;13.30;59.02
35519;BME280;21627;48.216;16.482;2023-04-01T17:32:56;98599.38;;;13.17;60.17
35519;BME280;21627;48.216;16.482;2023-04-01T17:35:06;98613.22;;;13.18;59.85
35519;BME280;21627;48.216;16.482;2023-04-01T17:40:57;98618.50;;;12.84;62.30
35519;BME280;21627;48.216;16.482;2023-04-01T17:53:31;98645.09;;;12.25;67.95
35519;BME280;21627;48.216;16.482;2023-04-01T17:56:12;98653.13;;;12.14;68.57
35519;BME280;21627;48.216;16.482;2023-04-01T18:01:34;98653.06;;;12.17;69.27
35519;BME280;21627;48.216;16.482;2023-04-01T18:10:14;98659.66;;;11.93;71.41
35519;BME280;21627;48.216;16.482;2023-04-01T18:13:38;98666.69;;;11.88;72.46
35519;BME280;21627;48.216;16.482;2023-04-01T18:22:23;98677.44;;;11.69;74.03
35519;BME280;21627;48.216;16.482;2023-04-01T18:30:30;98677.03;;;11.49;74.39
35519;BME280;21627;48.216;16.482;2023-04-01T18:33:25;98693.41;;;11.50;74.33
35519;BME280;21627;48.216;16.482;2023-04-01T18:39:11;98702.16;;;11.42;74.45
35519;BME280;21627;48.216;16.482;2023-04-01T18:44:50;98707.41;;;11.39;75.44
35519;BME280;21627;48.216;16.482;2023-04-01T18:48:13;98714.34;;;11.37;75.28
35519;BME280;21627;48.216;16.482;2023-04-01T18:50:59;98715.28;;;11.33;75.15
35519;BME280;21627;48.216;16.482;2023-04-01T18:56:35;98725.72;;;11.29;75.61
35519;BME280;21627;48.216;16.482;2023-04-01T19:05:05;98747.44;;;11.21;76.03
35519;BME280;21627;48.216;16.482;2023-04-01T19:07:56;98740.63;;;11.16;76.32
35519;BME280;21627;48.216;16.482;2023-04-01T19:19:34;98767.66;;;10.99;79.35
35519;BME280;21627;48.216;16.482;2023-04-01T19:25:56;98775.50;;;10.93;80.27
35519;BME280;21627;48.216;16.482;2023-04-01T19:28:54;98779.75;;;10.97;80.86
35519;BME280;21627;48.216;16.482;2023-04-01T19:34:35;98772.31;;;10.79;81.49
35519;BME280;21627;48.216;16.482;2023-04-01T19:37:27;98770.78;;;10.69;82.15
35519;BME280;21627;48.216;16.482;2023-04-01T19:43:10;98777.81;;;10.59;82.87
35519;BME280;21627;48.216;16.482;2023-04-01T19:46:35;98778.00;;;10.47;83.98
35519;BME280;21627;48.216;16.482;2023-04-01T19:49:16;98786.59;;;10.49;84.40
35519;BME280;21627;48.216;16.482;2023-04-01T19:52:00;98793.53;;;10.45;85.38
35519;BME280;21627;48.216;16.482;2023-04-01T19:55:47;98803.13;;;10.37;85.87
35519;BME280;21627;48.216;16.482;2023-04-01T19:58:20;98798.03;;;10.32;86.55
35519;BME280;21627;48.216;16.482;2023-04-01T20:00:58;98792.97;;;10.23;86.74
35519;BME280;21627;48.216;16.482;2023-04-01T20:03:54;98804.25;;;10.16;87.96
35519;BME280;21627;48.216;16.482;2023-04-01T20:06:56;98795.78;;;10.06;88.12
35519;BME280;21627;48.216;16.482;2023-04-01T20:15:45;98796.66;;;10.04;89.55
35519;BME280;21627;48.216;16.482;2023-04-01T20:18:19;98795.78;;;10.06;89.84
35519;BME280;21627;48.216;16.482;2023-04-01T20:26:48;98779.59;;;9.93;91.59
35519;BME280;21627;48.216;16.482;2023-04-01T20:50:56;98779.69;;;9.84;92.36
35519;BME280;21627;48.216;16.482;2023-04-01T20:53:43;98799.50;;;9.84;92.24
35519;BME280;21627;48.216;16.482;2023-04-01T21:09:14;98813.28;;;9.83;92.64
35519;BME280;21627;48.216;16.482;2023-04-01T21:14:52;98808.19;;;9.75;93.10
35519;BME280;21627;48.216;16.482;2023-04-01T21:37:47;98825.31;;;9.85;92.26
35519;BME280;21627;48.216;16.482;2023-04-01T21:55:44;98839.00;;;9.92;91.95
35519;BME280;21627;48.216;16.482;2023-04-01T22:01:43;98842.38;;;9.97;91.80
35519;BME280;21627;48.216;16.482;2023-04-01T22:07:21;98838.84;;;10.03;91.99
35519;BME280;21627;48.216;16.482;2023-04-01T22:10:53;98834.50;;;10.06;91.49
35519;BME280;21627;48.216;16.482;2023-04-01T22:13:15;98837.09;;;10.05;92.33
35519;BME280;21627;48.216;16.482;2023-04-01T22:19:19;98844.09;;;9.95;92.93
35519;BME280;21627;48.216;16.482;2023-04-01T22:25:11;98840.69;;;9.94;93.35
35519;BME280;21627;48.216;16.482;2023-04-01T22:27:52;98852.69;;;9.99;93.38
35519;BME280;21627;48.216;16.482;2023-04-01T22:30:34;98842.41;;;9.95;93.25
35519;BME280;21627;48.216;16.482;2023-04-01T22:33:41;98842.41;;;9.92;94.18
35519;BME280;21627;48.216;16.482;2023-04-01T22:47:40;98846.63;;;10.00;92.99
35519;BME280;21627;48.216;16.482;2023-04-01T22:50:30;98853.59;;;9.94;93.74
35519;BME280;21627;48.216;16.482;2023-04-01T22:55:40;98851.84;;;9.98;92.75
35519;BME280;21627;48.216;16.482;2023-04-01T22:58:38;98859.63;;;9.93;93.04
35519;BME280;21627;48.216;16.482;2023-04-01T23:01:21;98857.91;;;9.94;92.97
35519;BME280;21627;48.216;16.482;2023-04-01T23:03:52;98862.19;;;9.95;93.44
35519;BME280;21627;48.216;16.482;2023-04-01T23:06:26;98851.03;;;9.93;93.50
35519;BME280;21627;48.216;16.482;2023-04-01T23:09:25;98859.59;;;9.95;92.47
35519;BME280;21627;48.216;16.482;2023-04-01T23:11:59;98867.34;;;9.98;92.14
35519;BME280;21627;48.216;16.482;2023-04-01T23:20:05;98857.81;;;10.02;91.98
35519;BME280;21627;48.216;16.482;2023-04-01T23:31:03;98872.41;;;10.04;90.73
35519;BME280;21627;48.216;16.482;2023-04-01T23:33:31;98879.34;;;10.01;90.88
35519;BME280;21627;48.216;16.482;2023-04-01T23:38:40;98870.78;;;9.97;91.20
35519;BME280;21627;48.216;16.482;2023-04-01T23:41:28;98878.47;;;10.00;91.31
35519;BME280;21627;48.216;16.482;2023-04-01T23:44:05;98870.72;;;10.02;90.39
35519;BME280;21627;48.216;16.482;2023-04-01T23:46:37;98881.00;;;10.05;91.18
35519;BME280;21627;48.216;16.482;2023-04-01T23:49:27;98874.19;;;9.99;90.98
35519;BME280;21627;48.216;16.482;2023-04-01T23:52:03;98876.78;;;10.01;91.50
35519;BME280;21627;48.216;16.482;2023-04-01T23:54:43;98882.75;;;10.04;90.18
35519;BME280;21627;48.216;16.482;2023-04-01T23:57:37;98872.56;;;9.93;90.63
